Time;durP1;ratioP1;P1;durP2;ratioP2;P2;SDS_P1;SDS_P2;PMS_P1;PMS_P2;Temp;Humidity;BMP_temperature;BMP_pressure;BME280_temperature;BME280_humidity;BME280_pressure;Samples;Min_cycle;Max_cycle;Signal;HPM_P1;HPM_P2
2023/10/12 00:02:15;;;;;;;228.25;218.57;;;;;;;20.52;56.98;101126.63;5046294;28;20041;-77
2023/10/12 00:04:43;;;;;;;226.95;217.32;;;;;;;20.51;56.65;101142.28;5044486;28;20033;-77
2023/10/12 00:07:17;;;;;;;230.55;220.48;;;;;;;20.50;57.21;101137.06;5044799;28;20041;-77
2023/10/12 00:09:53;;;;;;;227.02;217.05;;;;;;;20.49;57.05;101125.28;5045455;28;20049;-77
2023/10/12 00:12:23;;;;;;;224.73;214.73;;;;;;;20.49;57.29;101132.72;5044928;28;20383;-78
2023/10/12 00:14:50;;;;;;;225.35;215.68;;;;;;;20.49;57.07;101135.47;5047532;28;20042;-75
2023/10/12 00:17:18;;;;;;;230.35;220.80;;;;;;;20.49;57.39;101149.19;5041027;28;20043;-76
2023/10/12 00:19:44;;;;;;;234.93;224.02;;;;;;;20.49;57.51;101147.25;5043486;28;20045;-76
2023/10/12 00:22:11;;;;;;;234.88;224.77;;;;;;;20.49;57.13;101149.19;5038929;28;20036;-76
2023/10/12 00:24:38;;;;;;;228.15;218.57;;;;;;;20.49;57.11;101144.50;5046570;28;20044;-77
2023/10/12 00:27:05;;;;;;;236.25;226.27;;;;;;;20.50;57.01;101148.06;5043462;28;20044;-76
2023/10/12 00:29:32;;;;;;;230.40;220.93;;;;;;;20.50;57.47;101148.84;5045558;28;20029;-76
2023/10/12 00:31:58;;;;;;;235.50;225.20;;;;;;;20.50;56.92;101150.78;5040604;28;20029;-76
2023/10/12 00:34:27;;;;;;;233.93;223.82;;;;;;;20.49;57.60;101155.47;5047269;28;20029;-76
2023/10/12 00:36:53;;;;;;;227.65;218.35;;;;;;;20.48;57.55;101159.31;5044837;28;20038;-77
2023/10/12 00:39:21;;;;;;;226.13;216.52;;;;;;;20.47;57.69;101160.44;5042060;28;20053;-76
2023/10/12 00:41:46;;;;;;;228.90;219.13;;;;;;;20.47;57.49;101167.88;5040292;28;20466;-76
2023/10/12 00:44:12;;;;;;;227.65;216.98;;;;;;;20.47;57.66;101179.66;5041818;28;20047;-75
2023/10/12 00:46:42;;;;;;;226.82;217.43;;;;;;;20.47;57.19;101184.31;5041239;28;20053;-77
2023/10/12 00:49:17;;;;;;;235.95;225.55;;;;;;;20.46;57.75;101182.69;5046041;28;20034;-76
2023/10/12 00:51:51;;;;;;;232.02;221.88;;;;;;;20.46;57.71;101183.53;5034208;28;20041;-75
2023/10/12 00:57:02;;;;;;;229.00;219.57;;;;;;;20.44;57.84;101176.69;5037136;28;20123;-76
2023/10/12 00:59:31;;;;;;;235.20;224.88;;;;;;;20.42;57.45;101174.25;5046839;28;20059;-77
2023/10/12 01:01:57;;;;;;;227.13;217.43;;;;;;;20.43;57.87;101166.81;5046101;28;20450;-76
2023/10/12 01:04:22;;;;;;;233.75;223.68;;;;;;;20.43;57.52;101175.06;5042281;28;20049;-78
2023/10/12 01:06:48;;;;;;;230.52;220.65;;;;;;;20.43;57.80;101173.13;5043591;28;20044;-77
2023/10/12 01:09:19;;;;;;;232.95;222.85;;;;;;;20.43;57.32;101175.06;5044300;28;20144;-77
2023/10/12 01:12:00;;;;;;;235.43;225.13;;;;;;;20.43;57.84;101175.06;5046587;28;20098;-77
2023/10/12 01:14:27;;;;;;;234.45;224.05;;;;;;;20.42;57.38;101181.66;5046523;28;20041;-77
2023/10/12 01:16:58;;;;;;;229.63;219.88;;;;;;;20.42;57.84;101182.47;5037991;28;20030;-75
2023/10/12 01:19:31;;;;;;;235.18;225.00;;;;;;;20.42;57.47;101184.41;5044132;28;20044;-78
2023/10/12 01:22:05;;;;;;;228.05;217.93;;;;;;;20.41;57.58;101175.38;5043049;28;20045;-76
2023/10/12 01:24:30;;;;;;;229.50;219.27;;;;;;;20.41;57.55;101167.13;5043286;28;20036;-76
2023/10/12 01:26:57;;;;;;;236.95;226.68;;;;;;;20.41;57.73;101153.41;5035588;28;20600;-76
2023/10/12 01:29:25;;;;;;;232.50;222.50;;;;;;;20.40;57.76;101138.06;5042295;28;20040;-76
2023/10/12 01:32:41;;;;;;;233.50;223.35;;;;;;;20.42;58.05;101132.28;5041609;28;20033;-75
2023/10/12 01:34:44;;;;;;;229.82;219.95;;;;;;;20.41;57.47;101127.88;5036176;28;20072;-76
2023/10/12 01:37:22;;;;;;;235.50;224.60;;;;;;;20.40;57.98;101137.25;5040839;28;20076;-77
2023/10/12 01:40:10;;;;;;;228.98;219.13;;;;;;;20.41;57.96;101138.84;5048008;28;20068;-75
2023/10/12 01:47:55;;;;;;;239.52;229.45;;;;;;;20.37;57.58;101122.19;5041778;28;20041;-76
2023/10/12 01:50:24;;;;;;;229.75;219.45;;;;;;;20.38;57.74;101132.03;5043975;28;20145;-75
2023/10/12 01:52:52;;;;;;;233.45;223.73;;;;;;;20.37;57.69;101127.69;5039907;28;20044;-76
2023/10/12 01:55:30;;;;;;;232.40;222.23;;;;;;;20.37;58.01;101143.34;5044067;28;20179;-77
2023/10/12 01:57:56;;;;;;;230.55;220.75;;;;;;;20.37;57.95;101137.84;5044708;28;20049;-76
2023/10/12 02:00:27;;;;;;;233.27;223.57;;;;;;;20.36;58.09;101139.78;5042847;28;20029;-76
2023/10/12 02:03:02;;;;;;;232.10;221.82;;;;;;;20.35;58.03;101140.88;5047328;28;20223;-75
2023/10/12 02:05:30;;;;;;;235.07;224.48;;;;;;;20.35;58.02;101142.81;5041344;28;20280;-75
2023/10/12 02:07:57;;;;;;;231.27;221.50;;;;;;;20.34;58.12;101155.72;5039384;28;20453;-75
2023/10/12 02:10:25;;;;;;;231.95;222.07;;;;;;;20.33;57.84;101143.09;5038597;28;20041;-75
2023/10/12 02:12:54;;;;;;;234.00;223.45;;;;;;;20.32;58.42;101139.53;5039895;28;20069;-77
2023/10/12 02:15:21;;;;;;;231.88;222.18;;;;;;;20.31;58.40;101140.69;5039133;28;20041;-75
2023/10/12 02:17:50;;;;;;;236.65;226.20;;;;;;;20.31;58.25;101161.81;5046651;28;20345;-76
2023/10/12 02:20:15;;;;;;;;;;;;;;;20.29;58.46;101153.88;5052764;28;20449;-77
2023/10/12 02:22:41;;;;;;;226.07;215.98;;;;;;;20.27;58.42;101119.63;5049456;28;19921;-76
2023/10/12 02:27:41;;;;;;;228.55;218.23;;;;;;;20.25;58.30;101102.63;5047489;28;20049;-77
2023/10/12 02:30:13;;;;;;;229.30;219.20;;;;;;;20.26;58.08;101105.09;5045868;28;20033;-77
2023/10/12 02:32:51;;;;;;;228.05;217.90;;;;;;;20.26;58.28;101102.34;5043417;28;20139;-77
2023/10/12 02:35:19;;;;;;;;;;;;;;;20.25;58.33;101100.69;5036789;28;20040;-78
2023/10/12 02:37:46;;;;;;;221.57;211.33;;;;;;;20.25;58.32;101097.16;5050603;28;20392;-76
2023/10/12 02:40:11;;;;;;;223.88;214.13;;;;;;;20.25;58.16;101097.97;5043048;28;20029;-77
2023/10/12 02:42:43;;;;;;;226.38;216.80;;;;;;;20.24;58.03;101099.09;5049597;28;20041;-77
2023/10/12 02:45:15;;;;;;;230.07;220.00;;;;;;;20.23;58.08;101091.94;5043655;28;20048;-77
2023/10/12 02:47:42;;;;;;;228.90;218.73;;;;;;;20.24;57.88;101106.50;5045517;28;20414;-77
2023/10/12 02:52:35;;;;;;;227.13;217.20;;;;;;;20.23;58.39;101083.72;5048230;28;20033;-77
2023/10/12 02:55:17;;;;;;;236.65;226.23;;;;;;;20.22;58.38;101078.56;5050555;28;20426;-77
2023/10/12 02:57:53;;;;;;;229.55;219.80;;;;;;;20.21;58.47;101080.50;5046757;28;20489;-77
2023/10/12 03:00:21;;;;;;;231.10;221.45;;;;;;;20.21;58.49;101085.13;5042552;28;20507;-77
2023/10/12 03:02:52;;;;;;;230.25;220.30;;;;;;;20.20;58.04;101092.56;5050045;28;20056;-77
2023/10/12 03:05:30;;;;;;;231.68;221.65;;;;;;;20.20;58.42;101099.97;5040786;28;20393;-78
2023/10/12 03:07:56;;;;;;;232.20;221.75;;;;;;;20.19;58.05;101106.59;5043640;28;20037;-77
2023/10/12 03:10:26;;;;;;;234.13;223.70;;;;;;;20.19;58.50;101109.34;5042663;28;20029;-77
2023/10/12 03:12:55;;;;;;;232.95;222.93;;;;;;;20.17;58.65;101095.09;5046152;28;20484;-77
2023/10/12 03:15:30;;;;;;;232.57;222.25;;;;;;;20.17;58.21;101095.91;5043936;28;20366;-76
2023/10/12 03:17:58;;;;;;;234.57;224.18;;;;;;;20.16;58.36;101085.22;5031319;28;20045;-76
2023/10/12 03:20:28;;;;;;;229.98;219.98;;;;;;;20.15;58.08;101083.59;5044057;28;20462;-77
2023/10/12 03:22:59;;;;;;;230.90;221.00;;;;;;;20.14;58.52;101077.31;5042087;28;20130;-76
2023/10/12 03:25:43;;;;;;;232.70;221.93;;;;;;;20.14;58.00;101080.06;5047655;28;20400;-77
2023/10/12 03:28:29;;;;;;;232.25;221.95;;;;;;;20.13;58.40;101086.63;5040753;28;20034;-77
2023/10/12 03:30:57;;;;;;;226.98;216.88;;;;;;;20.10;58.45;101088.03;5046048;28;20370;-77
2023/10/12 03:33:29;;;;;;;230.75;221.18;;;;;;;20.12;58.16;101108.88;5047108;28;20040;-77
2023/10/12 03:36:17;;;;;;;228.25;218.25;;;;;;;20.11;58.55;101105.34;5050047;28;20091;-77
2023/10/12 03:38:43;;;;;;;228.23;218.65;;;;;;;20.10;58.13;101109.97;5043039;28;20098;-76
2023/10/12 03:44:02;;;;;;;231.05;220.98;;;;;;;20.08;58.37;101116.88;5046310;28;20045;-76
2023/10/12 03:46:28;;;;;;;234.70;224.27;;;;;;;20.07;58.18;101107.03;5043860;28;20575;-74
2023/10/12 03:49:10;;;;;;;237.68;227.43;;;;;;;20.07;58.70;101123.50;5047652;28;20067;-76
2023/10/12 03:51:42;;;;;;;226.00;216.65;;;;;;;20.06;58.13;101132.84;5042134;28;20091;-77
2023/10/12 03:54:18;;;;;;;230.07;220.30;;;;;;;20.06;58.63;101130.09;5046982;28;20520;-77
2023/10/12 03:56:44;;;;;;;229.00;219.30;;;;;;;20.06;58.59;101130.09;5038247;28;20468;-74
2023/10/12 03:59:12;;;;;;;227.40;217.82;;;;;;;20.04;58.35;101137.81;5044450;28;20111;-74
2023/10/12 04:01:41;;;;;;;228.65;219.07;;;;;;;20.04;58.33;101137.81;5041752;28;20259;-75
2023/10/12 04:04:21;;;;;;;228.77;219.20;;;;;;;20.03;58.16;101138.91;5048812;28;20048;-76
2023/10/12 04:09:42;;;;;;;229.75;219.82;;;;;;;20.01;58.69;101119.22;5044602;28;20044;-76
2023/10/12 04:14:48;;;;;;;228.90;219.30;;;;;;;19.99;58.31;101135.94;5045574;28;20508;-76
2023/10/12 04:27:52;;;;;;;224.13;214.50;;;;;;;19.96;58.74;101138.44;5045789;28;20521;-75
2023/10/12 04:30:42;;;;;;;228.10;218.40;;;;;;;19.96;58.78;101136.53;5046986;28;20120;-75
2023/10/12 04:35:52;;;;;;;224.85;215.25;;;;;;;19.95;58.49;101132.16;5044369;28;20496;-75
2023/10/12 04:39:15;;;;;;;228.23;218.57;;;;;;;19.95;58.58;101145.84;5044958;28;20033;-75
2023/10/12 04:43:52;;;;;;;228.90;218.90;;;;;;;19.93;58.48;101145.34;5047412;28;20033;-77
2023/10/12 04:48:50;;;;;;;227.25;217.63;;;;;;;19.92;58.87;101143.72;5042535;28;20073;-77
2023/10/12 04:51:21;;;;;;;226.02;216.40;;;;;;;19.92;58.64;101153.88;5039067;28;20029;-77
2023/10/12 04:54:06;;;;;;;231.30;221.43;;;;;;;19.92;58.59;101159.34;5042423;28;20037;-77
2023/10/12 04:56:36;;;;;;;229.05;218.80;;;;;;;19.90;58.55;101151.41;5049500;28;20075;-77
2023/10/12 04:59:25;;;;;;;229.07;219.18;;;;;;;19.89;58.88;101160.75;5046082;28;20029;-77
2023/10/12 05:02:22;;;;;;;231.50;221.48;;;;;;;19.87;58.70;101163.78;5055255;28;20029;-77
2023/10/12 05:09:48;;;;;;;226.90;217.27;;;;;;;19.85;58.92;101181.63;5044856;28;20128;-76
2023/10/12 05:12:14;;;;;;;226.25;216.43;;;;;;;19.84;59.03;101182.75;5038433;28;20470;-77
2023/10/12 05:14:40;;;;;;;223.60;214.07;;;;;;;19.83;58.95;101178.38;5045365;28;20036;-76
2023/10/12 05:17:08;;;;;;;223.43;213.98;;;;;;;19.81;59.04;101180.63;5048208;28;20044;-76
2023/10/12 05:19:33;;;;;;;228.38;218.13;;;;;;;19.81;58.47;101181.44;5040730;28;20045;-78
2023/10/12 05:21:59;;;;;;;221.88;212.50;;;;;;;19.80;58.50;101182.53;5050312;28;20059;-75
2023/10/12 05:24:24;;;;;;;229.45;219.80;;;;;;;19.81;58.72;101180.63;5050013;28;20045;-75
2023/10/12 05:27:09;;;;;;;223.93;214.32;;;;;;;19.79;58.98;101180.91;5047686;28;20480;-77
2023/10/12 05:29:38;;;;;;;223.32;213.60;;;;;;;19.77;59.13;101185.84;5037032;28;20095;-76
2023/10/12 05:32:18;;;;;;;221.13;211.82;;;;;;;19.77;59.09;101174.88;5043430;28;20107;-76
2023/10/12 05:34:45;;;;;;;217.52;207.95;;;;;;;19.76;58.86;101183.44;5046903;28;20036;-76
2023/10/12 05:37:37;;;;;;;227.50;217.82;;;;;;;19.74;58.82;101186.44;5049301;28;20455;-76
2023/10/12 05:40:09;;;;;;;217.60;208.45;;;;;;;19.73;58.96;101192.22;5046953;28;20055;-76
2023/10/12 05:42:39;;;;;;;219.18;210.38;;;;;;;19.70;58.88;101196.34;5038809;28;20220;-76
2023/10/12 05:48:03;;;;;;;215.13;206.20;;;;;;;19.70;59.30;101192.81;5007168;28;20048;-75
2023/10/12 05:50:31;;;;;;;220.98;211.23;;;;;;;19.69;59.01;101205.69;5048976;28;20496;-76
2023/10/12 05:52:59;;;;;;;218.10;209.02;;;;;;;19.69;58.72;101202.97;5042243;28;20040;-75
2023/10/12 05:55:25;;;;;;;224.05;214.35;;;;;;;19.67;58.95;101203.25;5041181;28;20033;-76
2023/10/12 05:57:51;;;;;;;218.65;209.93;;;;;;;19.69;59.39;101208.44;5039584;28;20482;-74
2023/10/12 06:00:35;;;;;;;222.13;212.27;;;;;;;19.67;58.99;101214.19;5043247;28;20133;-76
2023/10/12 06:03:12;;;;;;;223.30;213.85;;;;;;;19.68;59.40;101209.56;5043396;28;20086;-76
2023/10/12 06:05:37;;;;;;;220.13;210.63;;;;;;;19.68;58.87;101215.03;5043218;28;20573;-74
2023/10/12 06:08:03;;;;;;;221.27;211.85;;;;;;;19.68;58.90;101215.03;5045348;28;20037;-74
2023/10/12 06:10:29;;;;;;;224.73;215.25;;;;;;;19.67;59.14;101213.38;5045362;28;20057;-75
2023/10/12 06:12:56;;;;;;;215.82;206.43;;;;;;;19.66;59.05;101217.22;5042932;28;20033;-76
2023/10/12 06:15:24;;;;;;;218.98;209.00;;;;;;;19.66;59.09;101219.97;5044057;28;20572;-76
2023/10/12 06:17:51;;;;;;;222.55;213.13;;;;;;;19.66;59.17;101223.50;5047509;28;20041;-74
2023/10/12 06:20:36;;;;;;;221.93;212.60;;;;;;;19.64;59.06;101220.25;5046542;28;20044;-74
2023/10/12 06:23:08;;;;;;;217.50;207.98;;;;;;;19.63;58.99;101218.63;5041515;28;20044;-76
2023/10/12 06:25:37;;;;;;;221.70;211.88;;;;;;;19.64;59.33;101219.44;5045784;28;20449;-77
2023/10/12 06:28:14;;;;;;;215.57;206.68;;;;;;;19.64;58.92;101211.22;5044875;28;20104;-77
2023/10/12 06:30:46;;;;;;;220.57;211.27;;;;;;;19.64;58.72;101216.69;5044307;28;20032;-77
2023/10/12 06:33:17;;;;;;;216.18;207.07;;;;;;;19.64;59.10;101225.72;5044022;28;20520;-78
2023/10/12 06:36:00;;;;;;;220.40;211.23;;;;;;;19.64;59.15;101231.22;5045648;28;20032;-76
2023/10/12 06:38:47;;;;;;;219.93;210.82;;;;;;;19.63;59.43;101231.47;5044668;28;20102;-77
2023/10/12 06:43:59;;;;;;;220.27;211.27;;;;;;;19.62;59.11;101225.19;5041213;28;20106;-76
2023/10/12 06:46:28;;;;;;;219.82;209.93;;;;;;;19.61;59.06;101220.84;5041138;28;20032;-77
2023/10/12 06:49:00;;;;;;;216.90;207.88;;;;;;;19.62;59.21;101227.13;5041897;28;20070;-77
2023/10/12 06:51:28;;;;;;;216.60;207.38;;;;;;;19.61;59.16;101223.56;5045317;28;20132;-78
2023/10/12 06:54:06;;;;;;;215.93;206.82;;;;;;;19.61;59.14;101237.28;5044678;28;20033;-78
2023/10/12 06:56:32;;;;;;;214.75;206.02;;;;;;;19.61;59.21;101228.25;5041314;28;20041;-78
2023/10/12 07:04:19;;;;;;;213.80;204.68;;;;;;;19.59;58.79;101235.94;5045785;28;20037;-78
2023/10/12 07:07:07;;;;;;;210.65;201.95;;;;;;;19.58;58.95;101242.50;5042075;28;20137;-78
2023/10/12 07:09:40;;;;;;;215.73;206.60;;;;;;;19.58;59.30;101248.81;5047461;28;20128;-76
2023/10/12 07:12:13;;;;;;;210.57;201.65;;;;;;;19.57;59.10;101249.91;5045787;28;20083;-78
2023/10/12 07:14:46;;;;;;;215.63;206.27;;;;;;;19.56;59.37;101251.03;5048564;28;20044;-77
2023/10/12 07:17:13;;;;;;;210.57;201.57;;;;;;;19.56;59.36;101252.97;5046895;28;20032;-77
2023/10/12 07:19:46;;;;;;;211.35;202.43;;;;;;;19.55;58.96;101248.56;5046565;28;20072;-78
2023/10/12 07:22:15;;;;;;;217.70;208.25;;;;;;;19.56;59.39;101252.97;5043569;28;20029;-78
2023/10/12 07:24:44;;;;;;;212.45;203.57;;;;;;;19.55;59.36;101265.81;5045482;28;20082;-78
2023/10/12 07:27:11;;;;;;;211.10;202.32;;;;;;;19.56;58.88;101269.41;5048720;28;20049;-78
2023/10/12 07:29:39;;;;;;;211.77;202.77;;;;;;;19.55;59.18;101276.78;5049252;28;20468;-79
2023/10/12 07:32:18;;;;;;;211.30;202.32;;;;;;;19.56;58.78;101278.44;5042574;28;20083;-76
2023/10/12 07:34:51;;;;;;;209.00;200.10;;;;;;;19.56;58.80;101274.88;5049711;28;20102;-77
2023/10/12 07:37:17;;;;;;;205.48;196.82;;;;;;;19.56;58.96;101277.63;5045749;28;20079;-77
2023/10/12 07:39:43;;;;;;;208.43;199.70;;;;;;;19.55;59.24;101281.44;5046432;28;20060;-76
2023/10/12 07:42:12;;;;;;;214.13;204.90;;;;;;;19.54;59.28;101277.09;5044282;28;20048;-78
2023/10/12 07:44:43;;;;;;;207.82;199.18;;;;;;;19.53;59.22;101284.50;5048146;28;20074;-78
2023/10/12 07:47:14;;;;;;;217.52;207.68;;;;;;;19.52;59.36;101276.56;5043233;28;20409;-77
2023/10/12 07:49:48;;;;;;;213.80;204.70;;;;;;;19.51;59.19;101273.00;5047688;28;20380;-77
2023/10/12 07:52:22;;;;;;;216.02;206.57;;;;;;;19.53;59.60;101281.75;5047759;28;20037;-78
2023/10/12 07:57:14;;;;;;;215.68;205.98;;;;;;;19.52;59.34;101280.13;5046796;28;20045;-78
2023/10/12 07:59:54;;;;;;;215.18;206.18;;;;;;;19.51;59.41;101273.00;5047733;28;20052;-77
2023/10/12 08:03:05;;;;;;;217.48;208.25;;;;;;;19.52;59.09;101280.13;5044992;28;20068;-77
2023/10/12 08:13:14;;;;;;;;;;;;;;;19.51;59.38;101280.41;5046136;28;20044;-78
2023/10/12 08:29:17;;;;;;;215.63;206.25;;;;;;;19.48;59.49;101280.97;5043675;28;20064;-78
2023/10/12 08:31:45;;;;;;;210.40;200.70;;;;;;;19.47;59.34;101285.66;5048285;28;20144;-78
2023/10/12 08:37:17;;;;;;;214.95;205.50;;;;;;;19.48;59.52;101278.22;5046804;28;20122;-78
2023/10/12 08:39:51;;;;;;;209.43;200.32;;;;;;;19.48;58.98;101290.03;5046266;28;20097;-79
2023/10/12 08:45:09;;;;;;;213.70;204.35;;;;;;;19.47;59.57;101304.81;5044487;28;20053;-76
2023/10/12 08:50:31;;;;;;;213.80;204.77;;;;;;;19.47;59.39;101304.81;5045739;28;20067;-76
2023/10/12 08:53:02;;;;;;;215.50;206.20;;;;;;;19.49;59.56;101307.28;5044834;28;20129;-76
2023/10/12 08:55:31;;;;;;;214.73;205.35;;;;;;;19.49;59.58;101307.28;5047800;28;20047;-76
2023/10/12 08:58:38;;;;;;;213.05;203.57;;;;;;;19.50;59.52;101308.91;5042215;28;20040;-76
2023/10/12 09:01:10;;;;;;;204.57;195.63;;;;;;;19.49;59.29;101301.81;5042278;28;20033;-76
2023/10/12 09:03:44;;;;;;;207.35;198.13;;;;;;;19.49;59.59;101302.63;5046539;28;20075;-76
2023/10/12 09:08:56;;;;;;;208.38;199.27;;;;;;;19.49;59.25;101307.28;5044562;28;21603;-76
2023/10/12 09:11:29;;;;;;;205.68;196.88;;;;;;;19.48;59.49;101309.22;5046414;28;20057;-76
2023/10/12 09:13:57;;;;;;;208.98;199.80;;;;;;;19.50;59.58;101311.66;5044216;28;20415;-75
2023/10/12 09:16:23;;;;;;;211.70;202.63;;;;;;;19.50;59.23;101312.47;5045527;28;21381;-76
2023/10/12 09:18:56;;;;;;;208.23;199.48;;;;;;;19.50;59.76;101306.16;5045076;28;20468;-77
2023/10/12 09:26:34;;;;;;;206.07;197.10;;;;;;;19.53;59.35;101295.47;5043028;28;20366;-78
2023/10/12 09:36:37;;;;;;;212.25;203.23;;;;;;;19.55;59.34;101292.41;5047431;28;20136;-80
2023/10/12 09:39:03;;;;;;;212.30;203.10;;;;;;;19.55;59.57;101290.47;5045119;28;20140;-83
2023/10/12 09:41:33;;;;;;;210.95;201.75;;;;;;;19.54;59.52;101291.59;5042761;28;20381;-77
2023/10/12 09:44:04;;;;;;;217.85;208.38;;;;;;;19.55;59.89;101292.41;5044899;28;20047;-77
2023/10/12 09:46:33;;;;;;;214.27;205.13;;;;;;;19.55;60.05;101290.47;5045690;28;20039;-76
2023/10/12 09:49:08;;;;;;;218.27;208.68;;;;;;;19.55;59.66;101295.97;5039518;28;20175;-80
2023/10/12 09:51:36;;;;;;;216.32;206.88;;;;;;;19.55;59.70;101289.69;5044817;28;20523;-77
2023/10/12 09:54:18;;;;;;;215.07;205.67;;;;;;;19.54;59.80;101291.59;5043861;28;20033;-77
2023/10/12 09:56:57;;;;;;;212.32;203.15;;;;;;;19.54;60.06;101288.88;5043992;28;20330;-77
2023/10/12 09:59:23;;;;;;;210.02;201.15;;;;;;;19.55;59.84;101284.19;5045589;28;20037;-77
2023/10/12 10:01:49;;;;;;;212.88;203.48;;;;;;;19.54;59.81;101279.84;5043614;28;20548;-78
2023/10/12 10:07:26;;;;;;;214.88;205.63;;;;;;;19.54;60.49;101286.13;5045582;28;20048;-78
2023/10/12 10:10:00;;;;;;;213.70;204.40;;;;;;;19.55;60.36;101281.44;5042120;28;20048;-78
2023/10/12 10:12:31;;;;;;;211.63;202.25;;;;;;;19.55;60.34;101281.44;5046441;28;20120;-78
2023/10/12 10:15:10;;;;;;;212.40;203.38;;;;;;;19.55;60.27;101271.31;5042698;28;20772;-78
2023/10/12 10:17:47;;;;;;;218.15;208.45;;;;;;;19.55;60.49;101274.03;5040725;28;20175;-78
2023/10/12 10:22:59;;;;;;;214.30;204.85;;;;;;;19.55;60.63;101262.28;5044243;28;20033;-78
2023/10/12 10:25:42;;;;;;;214.45;205.20;;;;;;;19.54;60.70;101261.47;5045974;28;20029;-79
2023/10/12 10:28:13;;;;;;;214.48;205.23;;;;;;;19.55;60.33;101260.34;5045074;28;20040;-79
2023/10/12 10:30:49;;;;;;;212.40;203.38;;;;;;;19.55;60.76;101259.53;5028795;28;20083;-80
2023/10/12 10:33:20;;;;;;;217.55;208.45;;;;;;;19.54;60.76;101249.69;5043307;28;20500;-79
2023/10/12 10:36:17;;;;;;;214.07;204.63;;;;;;;19.56;60.17;101244.75;5044017;28;20418;-79
2023/10/12 10:38:53;;;;;;;212.25;203.07;;;;;;;19.55;60.80;101243.91;5046786;28;20036;-77
2023/10/12 10:41:40;;;;;;;212.85;203.38;;;;;;;19.56;60.22;101242.00;5048525;28;20044;-80
2023/10/12 10:47:06;;;;;;;212.50;203.35;;;;;;;19.57;60.55;101251.84;5033761;28;20355;-77
2023/10/12 10:49:32;;;;;;;213.70;204.60;;;;;;;19.58;60.22;101254.31;5046800;28;20028;-78
2023/10/12 10:54:33;;;;;;;213.68;204.77;;;;;;;19.60;60.42;101248.50;5042127;28;20511;-78
2023/10/12 10:56:59;;;;;;;;;;;;;;;19.62;60.69;101243.56;5047982;28;20044;-79
2023/10/12 10:59:25;;;;;;;204.45;195.27;;;;;;;19.62;60.55;101246.31;5049768;28;19917;-78
2023/10/12 11:01:52;;;;;;;214.63;205.32;;;;;;;19.61;60.58;101241.94;5048699;28;20060;-78
2023/10/12 11:07:03;;;;;;;213.85;205.02;;;;;;;19.62;60.34;101241.63;5051070;28;20044;-78
2023/10/12 11:09:31;;;;;;;217.05;207.88;;;;;;;19.62;60.27;101238.91;5047590;28;20067;-78
2023/10/12 11:12:00;;;;;;;209.88;200.55;;;;;;;19.65;60.92;101251.19;5048446;28;20063;-78
2023/10/12 11:14:31;;;;;;;210.65;201.77;;;;;;;19.65;60.53;101254.78;5047850;28;20068;-79
2023/10/12 11:16:58;;;;;;;214.30;205.10;;;;;;;19.66;60.79;101253.66;5046348;28;20037;-79
2023/10/12 11:19:23;;;;;;;216.32;207.40;;;;;;;19.67;60.74;101249.03;5047587;28;20099;-79
2023/10/12 11:21:52;;;;;;;221.43;211.48;;;;;;;19.68;60.56;101245.19;5029533;28;20037;-78
2023/10/12 11:24:19;;;;;;;216.55;207.75;;;;;;;19.69;60.43;101233.09;5047269;28;20416;-79
2023/10/12 11:26:55;;;;;;;219.30;210.15;;;;;;;19.70;60.56;101228.44;5042790;28;20025;-79
2023/10/12 11:29:25;;;;;;;212.68;203.98;;;;;;;19.68;60.56;101231.50;5045579;28;20028;-79
2023/10/12 11:32:08;;;;;;;218.48;209.40;;;;;;;19.69;60.39;101232.28;5049102;28;20037;-77
2023/10/12 11:34:44;;;;;;;214.68;205.65;;;;;;;19.70;60.43;101226.50;5049578;28;20055;-77
2023/10/12 11:37:13;;;;;;;221.55;211.57;;;;;;;19.71;60.46;101224.59;5045856;28;20489;-79
2023/10/12 11:39:43;;;;;;;215.50;205.80;;;;;;;19.73;60.79;101230.59;5047926;28;20052;-79
2023/10/12 11:42:12;;;;;;;220.68;210.60;;;;;;;19.73;60.46;101227.84;5043908;28;20040;-76
2023/10/12 11:44:42;;;;;;;213.73;204.32;;;;;;;19.73;60.53;101214.13;5048422;28;20045;-76
2023/10/12 11:47:08;;;;;;;215.40;205.90;;;;;;;19.75;60.80;101217.41;5045110;28;20149;-76
2023/10/12 11:49:46;;;;;;;214.13;204.80;;;;;;;19.76;60.73;101221.81;5047998;28;20025;-77
2023/10/12 11:52:16;;;;;;;218.50;209.05;;;;;;;19.76;60.58;101210.84;5047473;28;20033;-77
2023/10/12 11:54:42;;;;;;;218.07;208.55;;;;;;;19.77;60.49;101226.16;5043534;28;20041;-79
2023/10/12 11:57:07;;;;;;;217.98;208.77;;;;;;;19.77;60.85;101216.00;5043684;28;20040;-76
2023/10/12 11:59:35;;;;;;;217.35;208.07;;;;;;;19.78;60.68;101216.81;5043294;28;20073;-79
2023/10/12 12:02:08;;;;;;;213.87;204.50;;;;;;;19.79;60.57;101210.25;5029073;28;20424;-79
2023/10/12 12:04:40;;;;;;;216.45;206.48;;;;;;;19.80;60.42;101220.09;5047673;28;20139;-79
2023/10/12 12:07:10;;;;;;;218.60;209.48;;;;;;;19.80;60.69;101214.59;5046942;28;20037;-79
2023/10/12 12:09:43;;;;;;;222.60;213.18;;;;;;;19.81;60.40;101216.25;5048874;28;20043;-78
2023/10/12 12:12:12;;;;;;;221.07;211.20;;;;;;;19.81;60.69;101197.88;5045030;28;20041;-79
2023/10/12 12:14:39;;;;;;;220.32;210.98;;;;;;;19.83;60.39;101186.59;5046762;28;20051;-77
2023/10/12 12:17:04;;;;;;;222.60;213.05;;;;;;;19.84;60.86;101174.53;5047499;28;20144;-79
2023/10/12 12:19:33;;;;;;;220.73;211.65;;;;;;;19.84;60.77;101169.06;5046844;28;20120;-78
2023/10/12 12:21:58;;;;;;;;;;;;;;;19.84;60.47;101156.16;5043993;28;20064;-77
2023/10/12 12:24:29;;;;;;;206.70;198.27;;;;;;;19.84;60.80;101164.38;5045706;28;20127;-78
2023/10/12 12:26:54;;;;;;;215.05;206.18;;;;;;;19.83;60.30;101157.28;5043685;28;20041;-78
2023/10/12 12:29:27;;;;;;;220.40;210.90;;;;;;;19.85;60.92;101167.94;5047006;28;20500;-78
2023/10/12 12:31:54;;;;;;;219.02;209.98;;;;;;;19.84;60.66;101164.38;5044713;28;20055;-79
2023/10/12 12:34:38;;;;;;;223.85;213.63;;;;;;;19.84;60.53;101177.28;5044339;28;20037;-79
2023/10/12 12:37:05;;;;;;;219.88;210.57;;;;;;;19.87;60.50;101165.72;5043690;28;20515;-78
2023/10/12 12:39:34;;;;;;;220.25;210.43;;;;;;;19.87;60.56;101172.00;5046806;28;20044;-78
2023/10/12 12:42:01;;;;;;;220.27;211.15;;;;;;;19.88;60.85;101173.66;5047084;28;20033;-78
2023/10/12 12:44:27;;;;;;;218.60;209.10;;;;;;;19.91;60.44;101171.41;5041954;28;20902;-78
2023/10/12 12:46:52;;;;;;;227.20;217.63;;;;;;;19.93;60.63;101180.16;5041959;28;20131;-79
2023/10/12 12:49:18;;;;;;;216.30;206.70;;;;;;;19.93;60.42;101172.75;5013379;28;20413;-78
2023/10/12 12:51:45;;;;;;;227.80;218.25;;;;;;;19.95;60.38;101176.03;5045276;28;20068;-80
2023/10/12 12:54:11;;;;;;;223.50;214.23;;;;;;;19.96;60.84;101177.66;5045493;28;20437;-80
2023/10/12 12:56:37;;;;;;;219.43;210.18;;;;;;;19.96;60.96;101171.34;5046457;28;20048;-81
2023/10/12 12:59:04;;;;;;;230.18;220.68;;;;;;;19.96;60.97;101174.09;5042826;28;20032;-81
2023/10/12 13:01:31;;;;;;;222.88;213.18;;;;;;;19.96;60.96;101168.59;5045068;28;20029;-81
2023/10/12 13:03:56;;;;;;;221.82;212.80;;;;;;;19.97;60.71;101168.31;5028256;28;20090;-81
2023/10/12 13:06:22;;;;;;;229.73;219.80;;;;;;;19.98;60.61;101171.88;5045417;28;20029;-79
2023/10/12 13:08:48;;;;;;;222.95;213.07;;;;;;;20.00;60.46;101161.44;5045586;28;20029;-80
2023/10/12 13:11:17;;;;;;;223.02;213.60;;;;;;;19.99;60.85;101160.63;5045299;28;20142;-79